createdAt,value
2022-08-04T00:00:07.761Z,100149.44
2022-08-04T00:02:59.201Z,100152.06
2022-08-04T00:05:37.087Z,100141.41
2022-08-04T00:08:16.367Z,100148.75
2022-08-04T00:10:49.176Z,100143.25
2022-08-04T00:13:24.072Z,100151.28
2022-08-04T00:15:59.200Z,100143.78
2022-08-04T00:18:30.952Z,100148.97
2022-08-04T00:21:04.592Z,100159.81
2022-08-04T00:24:12.246Z,100157.31
2022-08-04T00:26:26.293Z,100167.91
2022-08-04T00:28:57.265Z,100179.19
2022-08-04T00:31:33.326Z,100177.09
2022-08-04T00:34:16.466Z,100182.09
2022-08-04T00:36:45.726Z,100173.38
2022-08-04T00:39:19.637Z,100176.63
2022-08-04T00:41:58.522Z,100164.53
2022-08-04T00:44:38.828Z,100171.72
2022-08-04T00:47:25.225Z,100177.13
2022-08-04T00:50:09.225Z,100169.78
2022-08-04T00:52:56.251Z,100172.44
2022-08-04T00:55:37.894Z,100172.19
2022-08-04T00:58:29.627Z,100165.75
2022-08-04T01:01:03.331Z,100165.47
2022-08-04T01:03:46.060Z,100160.88
2022-08-04T01:06:25.778Z,100157.16
2022-08-04T01:09:21.775Z,100159.41
2022-08-04T01:12:12.074Z,100161.41
2022-08-04T01:14:55.516Z,100155.53
2022-08-04T01:17:34.579Z,100162.31
2022-08-04T01:20:07.018Z,100153.56
2022-08-04T01:23:08.185Z,100152.03
2022-08-04T01:26:42.651Z,100154.94
2022-08-04T01:29:06.190Z,100153.22
2022-08-04T01:31:48.300Z,100152.63
2022-08-04T01:34:18.065Z,100153.34
2022-08-04T01:36:50.019Z,100153.25
2022-08-04T01:39:38.631Z,100146.00
2022-08-04T01:42:09.632Z,100150.75
2022-08-04T01:44:41.874Z,100144.97
2022-08-04T01:47:10.923Z,100145.78
2022-08-04T01:49:41.207Z,100149.31
2022-08-04T01:52:11.234Z,100152.69
2022-08-04T01:54:42.808Z,100148.25
2022-08-04T01:57:38.636Z,100147.91
2022-08-04T02:00:02.293Z,100141.22
2022-08-04T02:02:32.431Z,100146.31
2022-08-04T02:05:00.619Z,100144.53
2022-08-04T02:07:52.158Z,100146.22
2022-08-04T02:10:29.274Z,100138.31
2022-08-04T02:13:10.169Z,100129.63
2022-08-04T02:15:54.515Z,100130.88
2022-08-04T02:18:25.801Z,100129.91
2022-08-04T02:20:59.340Z,100123.44
2022-08-04T02:23:35.795Z,100124.31
2022-08-04T02:26:05.835Z,100127.25
2022-08-04T02:28:41.175Z,100123.69
2022-08-04T02:31:19.409Z,100135.78
2022-08-04T02:33:56.448Z,100130.16
2022-08-04T02:36:31.520Z,100141.41
2022-08-04T02:39:01.906Z,100143.41
2022-08-04T02:41:31.892Z,100139.88
2022-08-04T02:44:01.651Z,100141.88
2022-08-04T02:46:32.818Z,100137.53
2022-08-04T02:49:03.480Z,100135.72
2022-08-04T02:51:34.807Z,100131.06
2022-08-04T02:54:05.899Z,100126.16
2022-08-04T02:56:39.155Z,100125.72
2022-08-04T02:59:08.993Z,100132.69
2022-08-04T03:01:56.433Z,100127.72
2022-08-04T03:04:46.656Z,100134.88
2022-08-04T03:07:36.434Z,100130.72
2022-08-04T03:10:29.368Z,100127.41
2022-08-04T03:13:25.165Z,100128.34
2022-08-04T03:16:07.534Z,100132.06
2022-08-04T03:19:03.243Z,100127.25
2022-08-04T03:22:09.484Z,100138.16
2022-08-04T03:25:10.208Z,100142.13
2022-08-04T03:28:10.163Z,100144.03
2022-08-04T03:30:54.677Z,100144.44
2022-08-04T03:33:46.391Z,100137.34
2022-08-04T03:36:52.929Z,100140.34
2022-08-04T03:39:49.218Z,100129.69
2022-08-04T03:42:54.374Z,100141.66
2022-08-04T03:45:47.875Z,100145.97
2022-08-04T03:48:41.101Z,100145.41
2022-08-04T03:51:49.380Z,100146.47
2022-08-04T03:54:40.881Z,100151.72
2022-08-04T03:57:48.561Z,100147.22
2022-08-04T04:00:19.798Z,100148.38
2022-08-04T04:03:30.928Z,100160.91
2022-08-04T04:06:41.263Z,100158.56
2022-08-04T04:09:57.069Z,100165.69
2022-08-04T04:12:50.727Z,100160.22
2022-08-04T04:15:48.232Z,100159.81
2022-08-04T04:18:33.739Z,100159.28
2022-08-04T04:21:22.974Z,100159.28
2022-08-04T04:24:33.859Z,100165.44
2022-08-04T04:27:10.926Z,100164.69
2022-08-04T04:30:02.660Z,100164.69
2022-08-04T04:32:44.744Z,100170.31
2022-08-04T04:35:24.017Z,100160.53
2022-08-04T04:38:21.297Z,100171.91
2022-08-04T04:41:00.966Z,100174.88
2022-08-04T04:43:52.323Z,100169.34
2022-08-04T04:46:31.406Z,100170.91
2022-08-04T04:49:06.527Z,100175.38
2022-08-04T04:51:43.476Z,100171.50
2022-08-04T04:54:22.800Z,100174.72
2022-08-04T04:57:02.539Z,100171.56
2022-08-04T04:59:35.546Z,100172.66
2022-08-04T05:02:31.673Z,100173.88
2022-08-04T05:05:13.091Z,100169.41
2022-08-04T05:08:43.820Z,100167.78
2022-08-04T05:11:11.366Z,100170.69
2022-08-04T05:14:34.479Z,100168.34
2022-08-04T05:16:37.100Z,100170.41
2022-08-04T05:19:16.166Z,100167.41
2022-08-04T05:21:49.306Z,100172.16
2022-08-04T05:24:21.951Z,100176.06
2022-08-04T05:26:53.282Z,100177.38
2022-08-04T05:29:31.924Z,100185.53
2022-08-04T05:32:06.647Z,100178.31
2022-08-04T05:34:42.015Z,100182.53
2022-08-04T05:37:12.996Z,100185.25
2022-08-04T05:39:47.136Z,100179.44
2022-08-04T05:42:16.523Z,100185.06
2022-08-04T05:44:50.938Z,100190.59
2022-08-04T05:47:21.392Z,100186.06
2022-08-04T05:49:55.557Z,100187.81
2022-08-04T05:52:31.299Z,100188.41
2022-08-04T05:55:01.420Z,100195.28
2022-08-04T05:57:30.695Z,100196.50
2022-08-04T06:00:10.506Z,100197.09
2022-08-04T06:02:50.519Z,100196.97
2022-08-04T06:05:19.401Z,100198.75
2022-08-04T06:08:11.850Z,100198.66
2022-08-04T06:10:38.840Z,100201.97
2022-08-04T06:13:11.177Z,100198.19
2022-08-04T06:16:02.894Z,100198.19
2022-08-04T06:20:02.189Z,100193.66
2022-08-04T06:21:27.946Z,100200.78
2022-08-04T06:24:04.093Z,100198.41
2022-08-04T06:26:35.734Z,100209.75
2022-08-04T06:29:05.255Z,100202.59
2022-08-04T06:32:28.710Z,100201.81
2022-08-04T06:34:36.659Z,100197.72
2022-08-04T06:37:05.537Z,100200.47
2022-08-04T06:39:34.948Z,100199.69
2022-08-04T06:42:21.431Z,100201.66
2022-08-04T06:44:54.983Z,100206.94
2022-08-04T06:47:25.823Z,100206.75
2022-08-04T06:51:27.049Z,100203.69
2022-08-04T06:52:46.286Z,100210.03
2022-08-04T06:55:14.598Z,100209.91
2022-08-04T06:57:45.189Z,100216.16
2022-08-04T07:00:15.014Z,100212.03
2022-08-04T07:02:47.034Z,100220.81
2022-08-04T07:05:16.344Z,100216.09
2022-08-04T07:07:58.153Z,100224.94
2022-08-04T07:10:28.645Z,100220.22
2022-08-04T07:12:57.647Z,100221.75
2022-08-04T07:15:26.834Z,100225.31
2022-08-04T07:17:59.875Z,100221.75
2022-08-04T07:20:35.266Z,100211.66
2022-08-04T07:23:05.019Z,100214.09
2022-08-04T07:26:00.463Z,100208.41
2022-08-04T07:28:24.431Z,100210.50
2022-08-04T07:30:54.446Z,100204.91
2022-08-04T07:33:25.819Z,100197.75
2022-08-04T07:36:10.518Z,100208.50
2022-08-04T07:38:48.729Z,100207.06
2022-08-04T07:41:39.010Z,100200.59
2022-08-04T07:44:08.475Z,100204.13
2022-08-04T07:46:36.474Z,100207.03
2022-08-04T07:49:06.876Z,100208.34
2022-08-04T07:51:37.895Z,100203.97
2022-08-04T07:54:07.714Z,100206.09
2022-08-04T07:56:38.192Z,100202.50
2022-08-04T07:59:07.249Z,100210.06
2022-08-04T08:01:37.612Z,100204.47
2022-08-04T08:04:09.104Z,100209.38
2022-08-04T08:06:43.138Z,100203.25
2022-08-04T08:09:14.688Z,100199.75
2022-08-04T08:12:35.299Z,100204.94
2022-08-04T08:14:33.484Z,100207.56
2022-08-04T08:17:02.893Z,100207.56
2022-08-04T08:19:32.703Z,100202.38
2022-08-04T08:22:04.902Z,100210.41
2022-08-04T08:24:37.404Z,100202.59
2022-08-04T08:27:06.753Z,100201.53
2022-08-04T08:29:36.144Z,100206.31
2022-08-04T08:32:09.169Z,100199.91
2022-08-04T08:34:39.548Z,100199.63
2022-08-04T08:37:15.259Z,100203.78
2022-08-04T08:39:51.388Z,100195.31
2022-08-04T08:42:55.968Z,100189.69
2022-08-04T08:45:47.695Z,100192.50
2022-08-04T08:48:53.517Z,100193.56
2022-08-04T08:51:37.604Z,100192.06
2022-08-04T08:54:38.475Z,100189.69
2022-08-04T08:57:22.919Z,100187.03
2022-08-04T09:00:05.333Z,100187.50
2022-08-04T09:03:04.398Z,100185.91
2022-08-04T09:06:11.693Z,100185.38
2022-08-04T09:09:02.613Z,100180.72
2022-08-04T09:11:41.119Z,100182.81
2022-08-04T09:14:18.259Z,100183.38
2022-08-04T09:16:50.492Z,100182.81
2022-08-04T09:19:37.395Z,100181.81
2022-08-04T09:22:14.524Z,100187.47
2022-08-04T09:24:54.973Z,100181.28
2022-08-04T09:27:40.787Z,100188.41
2022-08-04T09:30:11.802Z,100186.25
2022-08-04T09:32:48.564Z,100191.75
2022-08-04T09:35:25.270Z,100185.66
2022-08-04T09:38:06.225Z,100186.84
2022-08-04T09:40:55.114Z,100188.81
2022-08-04T09:44:43.103Z,100183.25
2022-08-04T09:46:28.957Z,100188.38
2022-08-04T09:49:02.807Z,100186.38
2022-08-04T09:51:56.732Z,100181.97
2022-08-04T09:54:34.591Z,100173.50
2022-08-04T09:57:15.403Z,100177.44
2022-08-04T09:59:52.560Z,100172.53
2022-08-04T10:02:24.526Z,100167.22
2022-08-04T10:04:56.255Z,100167.09
2022-08-04T10:08:15.176Z,100170.09
2022-08-04T10:10:47.558Z,100169.50
2022-08-04T10:13:26.854Z,100163.59
2022-08-04T10:16:08.659Z,100163.16
2022-08-04T10:18:46.575Z,100156.84
2022-08-04T10:21:23.805Z,100158.72
2022-08-04T10:24:12.579Z,100152.44
2022-08-04T10:26:53.126Z,100156.28
2022-08-04T10:29:28.861Z,100160.78
2022-08-04T10:32:01.705Z,100148.69
2022-08-04T10:34:33.217Z,100146.28
2022-08-04T10:37:07.311Z,100146.84
2022-08-04T10:40:08.115Z,100144.72
2022-08-04T10:42:42.914Z,100147.28
2022-08-04T10:45:19.097Z,100141.09
2022-08-04T10:47:57.947Z,100136.53
2022-08-04T10:50:29.440Z,100137.53
2022-08-04T10:53:04.071Z,100120.72
2022-08-04T10:56:07.380Z,100134.50
2022-08-04T10:58:47.640Z,100120.25
2022-08-04T11:01:50.772Z,100129.84
2022-08-04T11:04:27.583Z,100123.22
2022-08-04T11:06:57.437Z,100124.38
2022-08-04T11:09:29.895Z,100124.81
2022-08-04T11:12:04.663Z,100125.25
2022-08-04T11:14:38.835Z,100118.44
2022-08-04T11:17:16.686Z,100129.56
2022-08-04T11:19:53.505Z,100120.06
2022-08-04T11:22:26.537Z,100119.44
2022-08-04T11:25:05.166Z,100114.22
2022-08-04T11:27:39.582Z,100108.81
2022-08-04T11:30:13.480Z,100113.34
2022-08-04T11:32:52.131Z,100111.78
2022-08-04T11:35:28.713Z,100114.84
2022-08-04T11:38:03.443Z,100116.00
2022-08-04T11:40:39.201Z,100115.47
2022-08-04T11:43:13.912Z,100106.47
2022-08-04T11:45:48.709Z,100113.38
2022-08-04T11:48:23.921Z,100112.56
2022-08-04T11:50:54.307Z,100111.50
2022-08-04T11:53:24.906Z,100120.16
2022-08-04T11:56:09.088Z,100117.66
2022-08-04T11:58:39.557Z,100113.88
2022-08-04T12:01:17.422Z,100111.59
2022-08-04T12:04:03.620Z,100119.25
2022-08-04T12:06:40.325Z,100110.81
2022-08-04T12:09:22.440Z,100099.84
2022-08-04T12:12:00.026Z,100111.78
2022-08-04T12:14:36.632Z,100098.50
2022-08-04T12:17:06.101Z,100104.47
2022-08-04T12:20:03.507Z,100092.88
2022-08-04T12:22:31.396Z,100085.66
2022-08-04T12:25:04.759Z,100092.97
2022-08-04T12:27:36.056Z,100075.19
2022-08-04T12:30:59.776Z,100071.22
2022-08-04T12:33:01.307Z,100066.31
2022-08-04T12:35:36.422Z,100072.94
2022-08-04T12:38:07.995Z,100069.34
2022-08-04T12:40:41.787Z,100065.28
2022-08-04T12:43:14.153Z,100063.91
2022-08-04T12:45:48.787Z,100056.34
2022-08-04T12:48:21.347Z,100050.84
2022-08-04T12:50:53.826Z,100060.09
2022-08-04T12:53:31.784Z,100063.78
2022-08-04T12:56:02.592Z,100057.00
2022-08-04T12:58:41.989Z,100060.41
2022-08-04T13:02:10.718Z,100055.00
2022-08-04T13:04:12.494Z,100054.19
2022-08-04T13:06:43.791Z,100052.78
2022-08-04T13:09:18.611Z,100045.09
2022-08-04T13:11:51.583Z,100045.66
2022-08-04T13:14:27.422Z,100049.47
2022-08-04T13:17:00.164Z,100044.28
2022-08-04T13:19:29.065Z,100045.34
2022-08-04T13:22:03.309Z,100035.00
2022-08-04T13:24:57.013Z,100029.66
2022-08-04T13:27:26.829Z,100030.63
2022-08-04T13:30:03.543Z,100024.94
2022-08-04T13:32:33.243Z,100019.91
2022-08-04T13:35:03.804Z,100023.63
2022-08-04T13:37:35.860Z,100020.19
2022-08-04T13:40:06.218Z,100017.84
2022-08-04T13:42:36.099Z,100012.78
2022-08-04T13:45:07.385Z,100002.66
2022-08-04T13:47:38.633Z,100006.75
2022-08-04T13:50:13.789Z,100001.44
2022-08-04T13:52:44.620Z,99995.50
2022-08-04T13:55:23.496Z,99997.16
2022-08-04T13:57:56.302Z,99994.34
2022-08-04T14:00:29.666Z,99991.44
2022-08-04T14:03:23.975Z,99986.84
2022-08-04T14:06:16.065Z,99981.38
2022-08-04T14:08:49.271Z,99980.91
2022-08-04T14:12:06.869Z,99992.56
2022-08-04T14:14:19.737Z,99979.72
2022-08-04T14:17:02.606Z,99971.78
2022-08-04T14:19:48.939Z,99976.75
2022-08-04T14:22:34.973Z,99972.41
2022-08-04T14:25:09.290Z,99969.38
2022-08-04T14:27:46.333Z,99959.94
2022-08-04T14:30:26.052Z,99963.50
2022-08-04T14:32:59.020Z,99965.09
2022-08-04T14:35:58.460Z,99961.75
2022-08-04T14:38:43.046Z,99965.34
2022-08-04T14:41:13.179Z,99961.25
2022-08-04T14:43:49.468Z,99957.94
2022-08-04T14:46:18.266Z,99966.28
2022-08-04T14:49:10.472Z,99952.72
2022-08-04T14:51:41.745Z,99954.03
2022-08-04T14:54:17.233Z,99947.13
2022-08-04T14:56:53.810Z,99954.66
2022-08-04T14:59:22.575Z,99945.31
2022-08-04T15:02:00.570Z,99939.59
2022-08-04T15:04:31.229Z,99942.72
2022-08-04T15:07:00.484Z,99938.13
2022-08-04T15:09:29.175Z,99943.06
2022-08-04T15:11:58.822Z,99941.50
2022-08-04T15:14:37.165Z,99942.03
2022-08-04T15:17:12.527Z,99934.91
2022-08-04T15:19:56.645Z,99938.13
2022-08-04T15:22:24.943Z,99929.06
2022-08-04T15:24:55.483Z,99930.75
2022-08-04T15:27:29.798Z,99929.34
2022-08-04T15:30:02.271Z,99934.97
2022-08-04T15:32:33.087Z,99929.50
2022-08-04T15:35:06.547Z,99932.63
2022-08-04T15:37:43.775Z,99924.56
2022-08-04T15:40:16.028Z,99924.09
2022-08-04T15:42:49.730Z,99921.69
2022-08-04T15:45:23.863Z,99921.47
2022-08-04T15:48:33.314Z,99914.28
2022-08-04T15:51:14.401Z,99913.44
2022-08-04T15:54:23.547Z,99906.81
2022-08-04T15:57:01.645Z,99910.34
2022-08-04T16:00:02.125Z,99909.59
2022-08-04T16:02:43.530Z,99900.81
2022-08-04T16:05:33.500Z,99900.47
2022-08-04T16:08:04.628Z,99902.81
2022-08-04T16:10:41.711Z,99894.47
2022-08-04T16:13:13.738Z,99899.09
2022-08-04T16:15:46.756Z,99893.59
2022-08-04T16:18:26.098Z,99890.56
2022-08-04T16:21:03.510Z,99882.09
2022-08-04T16:24:00.772Z,99890.06
2022-08-04T16:26:57.343Z,99883.72
2022-08-04T16:29:27.189Z,99884.13
2022-08-04T16:32:16.398Z,99880.97
2022-08-04T16:34:55.441Z,99883.22
2022-08-04T16:37:26.470Z,99879.69
2022-08-04T16:40:35.155Z,99873.16
2022-08-04T16:43:10.261Z,99878.81
2022-08-04T16:45:54.239Z,99872.44
2022-08-04T16:48:27.252Z,99873.19
2022-08-04T16:51:05.254Z,99869.91
2022-08-04T16:53:53.281Z,99869.75
2022-08-04T16:56:30.211Z,99866.38
2022-08-04T16:59:07.228Z,99862.56
2022-08-04T17:01:35.968Z,99864.69
2022-08-04T17:04:08.407Z,99861.97
2022-08-04T17:06:38.364Z,99862.38
2022-08-04T17:09:08.307Z,99858.44
2022-08-04T17:11:36.470Z,99858.72
2022-08-04T17:14:06.007Z,99857.47
2022-08-04T17:16:35.978Z,99850.38
2022-08-04T17:19:06.799Z,99853.25
2022-08-04T17:21:49.060Z,99851.91
2022-08-04T17:24:18.044Z,99856.66
2022-08-04T17:29:44.572Z,99860.03
2022-08-04T17:32:19.448Z,99861.22
2022-08-04T17:34:50.758Z,99855.06
2022-08-04T17:37:41.252Z,99856.66
2022-08-04T17:40:13.258Z,99856.75
2022-08-04T17:42:45.241Z,99859.66
2022-08-04T17:48:09.786Z,99854.84
2022-08-04T17:50:43.786Z,99855.63
2022-08-04T17:56:00.916Z,99860.34
2022-08-04T17:58:35.002Z,99850.50
2022-08-04T18:01:24.054Z,99848.50
2022-08-04T18:03:53.717Z,99857.41
2022-08-04T18:06:25.847Z,99853.38
2022-08-04T18:08:58.869Z,99855.84
2022-08-04T18:11:53.515Z,99855.47
2022-08-04T18:14:25.825Z,99858.56
2022-08-04T18:16:56.804Z,99853.78
2022-08-04T18:19:25.126Z,99857.63
2022-08-04T18:21:59.637Z,99852.06
2022-08-04T18:24:36.062Z,99857.28
2022-08-04T18:27:19.632Z,99858.19
2022-08-04T18:30:15.021Z,99863.28
2022-08-04T18:32:36.335Z,99857.06
2022-08-04T18:35:07.552Z,99860.75
2022-08-04T18:38:06.685Z,99860.88
2022-08-04T18:40:37.841Z,99863.13
2022-08-04T18:43:16.496Z,99859.59
2022-08-04T18:45:56.332Z,99869.72
2022-08-04T18:48:36.066Z,99861.16
2022-08-04T18:51:22.772Z,99876.97
2022-08-04T18:53:58.459Z,99879.09
2022-08-04T18:56:31.854Z,99874.09
2022-08-04T18:59:02.924Z,99878.38
2022-08-04T19:02:12.335Z,99884.81
2022-08-04T19:04:34.041Z,99882.69
2022-08-04T19:07:29.235Z,99890.63
2022-08-04T19:09:57.931Z,99889.22
2022-08-04T19:12:28.589Z,99894.94
2022-08-04T19:15:10.271Z,99884.94
2022-08-04T19:17:55.176Z,99897.13
2022-08-04T19:20:26.916Z,99902.13
2022-08-04T19:24:27.868Z,99899.97
2022-08-04T19:26:02.200Z,99912.81
2022-08-04T19:28:35.170Z,99907.06
2022-08-04T19:31:05.414Z,99910.56
2022-08-04T19:36:27.609Z,99914.03
2022-08-04T19:38:57.179Z,99911.88
2022-08-04T19:41:29.431Z,99916.16
2022-08-04T19:43:58.792Z,99920.38
2022-08-04T19:46:28.542Z,99926.72
2022-08-04T19:48:59.522Z,99926.00
2022-08-04T19:51:29.917Z,99932.38
2022-08-04T19:54:03.838Z,99930.97
2022-08-04T19:56:40.694Z,99928.13
2022-08-04T19:59:10.198Z,99932.34
2022-08-04T20:01:44.040Z,99931.66
2022-08-04T20:04:14.215Z,99930.25
2022-08-04T20:06:42.728Z,99928.13
2022-08-04T20:09:24.750Z,99923.84
2022-08-04T20:11:56.645Z,99921.66
2022-08-04T20:14:32.555Z,99913.81
2022-08-04T20:17:03.168Z,99921.72
2022-08-04T20:19:38.785Z,99924.59
2022-08-04T20:22:46.290Z,99931.72
2022-08-04T20:25:01.097Z,99933.06
2022-08-04T20:27:59.647Z,99933.72
2022-08-04T20:30:29.549Z,99937.22
2022-08-04T20:32:57.839Z,99937.91
2022-08-04T20:35:27.102Z,99946.38
2022-08-04T20:38:00.829Z,99945.59
2022-08-04T20:40:30.429Z,99956.88
2022-08-04T20:43:00.564Z,99950.34
2022-08-04T20:45:31.817Z,99953.16
2022-08-04T20:48:17.132Z,99955.28
2022-08-04T20:50:47.010Z,99951.75
2022-08-04T20:53:17.054Z,99958.09
2022-08-04T20:55:55.510Z,99961.63
2022-08-04T20:58:27.325Z,99954.31
2022-08-04T21:00:56.068Z,99962.78
2022-08-04T21:03:49.353Z,99957.06
2022-08-04T21:06:13.627Z,99958.41
2022-08-04T21:08:44.106Z,99949.19
2022-08-04T21:11:32.756Z,99956.97
2022-08-04T21:14:02.916Z,99959.78
2022-08-04T21:16:54.022Z,99965.47
2022-08-04T21:19:24.392Z,99958.34
2022-08-04T21:21:53.488Z,99959.75
2022-08-04T21:24:26.173Z,99968.25
2022-08-04T21:26:56.773Z,99958.38
2022-08-04T21:29:34.693Z,99963.97
2022-08-04T21:32:05.847Z,99962.50
2022-08-04T21:34:37.863Z,99964.53
2022-08-04T21:37:10.238Z,99968.00
2022-08-04T21:39:50.838Z,99955.09
2022-08-04T21:42:30.615Z,99960.91
2022-08-04T21:45:02.434Z,99952.31
2022-08-04T21:47:45.954Z,99956.59
2022-08-04T21:50:19.846Z,99965.81
2022-08-04T21:52:49.120Z,99956.63
2022-08-04T21:55:19.110Z,99966.38
2022-08-04T21:57:49.342Z,99959.28
2022-08-04T22:00:20.274Z,99961.97
2022-08-04T22:02:53.202Z,99967.63
2022-08-04T22:05:22.296Z,99971.16
2022-08-04T22:07:51.706Z,99976.34
2022-08-04T22:10:22.458Z,99979.41
2022-08-04T22:13:06.976Z,99973.88
2022-08-04T22:16:03.982Z,99983.94
2022-08-04T22:18:27.511Z,99981.28
2022-08-04T22:20:56.313Z,99987.16
2022-08-04T22:23:25.409Z,99988.59
2022-08-04T22:25:56.174Z,99970.25
2022-08-04T22:28:28.506Z,99975.81
2022-08-04T22:30:58.363Z,99982.78
2022-08-04T22:33:54.916Z,99982.78
2022-08-04T22:36:16.740Z,99987.00
2022-08-04T22:38:51.111Z,99988.28
2022-08-04T22:41:23.728Z,99986.50
2022-08-04T22:44:02.287Z,99988.38
2022-08-04T22:46:32.015Z,99991.03
2022-08-04T22:49:00.100Z,99987.13
2022-08-04T22:51:28.279Z,99995.53
2022-08-04T22:53:58.192Z,99991.72
2022-08-04T22:56:38.659Z,99996.41
2022-08-04T22:59:10.882Z,99990.44
2022-08-04T23:01:59.836Z,99996.81
2022-08-04T23:04:30.654Z,99987.09
2022-08-04T23:06:59.317Z,99989.13
2022-08-04T23:09:50.108Z,99994.00
2022-08-04T23:12:26.165Z,99998.94
2022-08-04T23:14:55.607Z,100001.06
2022-08-04T23:17:27.300Z,100013.88
2022-08-04T23:19:58.678Z,100016.59
2022-08-04T23:22:41.942Z,100012.34
2022-08-04T23:25:15.463Z,100008.44
2022-08-04T23:27:50.463Z,100014.25
2022-08-04T23:30:24.864Z,100026.16
2022-08-04T23:32:59.522Z,100034.03
2022-08-04T23:35:27.817Z,100041.72
2022-08-04T23:37:57.270Z,100051.66
2022-08-04T23:40:32.625Z,100062.94
2022-08-04T23:43:12.154Z,100070.81
2022-08-04T23:46:05.165Z,100088.69
2022-08-04T23:48:36.170Z,100093.75
2022-08-04T23:51:13.820Z,100103.06
2022-08-04T23:54:01.630Z,100110.25
2022-08-04T23:56:32.104Z,100130.19
2022-08-04T23:59:03.699Z,100158.78
